WetterOnline ( https://www.wetteronline.ch )

Wetter aktuell Göttingen

Aktuelles Wetter: Göttingen (171m)

6-stündlich | Neueste Meldungen
Ortszeit Temperatur Wetter
Mo, 08.03. 1:00 1.5° C bedeckt
So, 07.03. 19:00 0.0° C bewölkt
So, 07.03. 13:00 4.7° C bewölkt
So, 07.03. 7:00 -3.0° C bedeckt
So, 07.03. 1:00 -3.0° C wolkenlos
Sa, 06.03. 19:00 4.4° C bedeckt
Sa, 06.03. 13:00 4.4° C wolkig
Sa, 06.03. 7:00 -6.3° C wolkenlos
Ortszeit Temperatur Wetter
Mo, 08.03. 1:00 1.5° C bedeckt
Mo, 08.03. 0:40 1.7° C bedeckt
Mo, 08.03. 0:30 1.5° C bedeckt
Mo, 08.03. 0:20 1.5° C bedeckt
Mo, 08.03. 0:10 1.4° C bedeckt
Mo, 08.03. 0:00 1.7° C bedeckt
So, 07.03. 23:50 1.7° C bedeckt
So, 07.03. 23:30 1.7° C bedeckt
So, 07.03. 23:00 1.8° C bedeckt
Ortszeit Relative Feuchte Sichtweite
Mo, 08.03. 1:00 82% 35 km
So, 07.03. 19:00 77% 50 km
So, 07.03. 13:00 66% 55 km
So, 07.03. 7:00 96% 30 km
So, 07.03. 1:00 95% 30 km
Sa, 06.03. 19:00 67% 50 km
Sa, 06.03. 13:00 57% 65 km
Sa, 06.03. 7:00 95% 27 km
Ortszeit Relative Feuchte Sichtweite
Mo, 08.03. 1:00 82% 35 km
Mo, 08.03. 0:40 78% -
Mo, 08.03. 0:30 79% 40 km
Mo, 08.03. 0:20 79% -
Mo, 08.03. 0:10 81% -
Mo, 08.03. 0:00 76% 45 km
So, 07.03. 23:50 76% -
So, 07.03. 23:30 76% 45 km
So, 07.03. 23:00 76% 50 km
Ortszeit Niederschlagsmenge Niederschlagsart
Mo, 08.03. 1:00 0.0 l/m2 in 6 Std. -
So, 07.03. 19:00 0.0 l/m2 in 12 Std. -
So, 07.03. 13:00 0.0 l/m2 in 6 Std. -
So, 07.03. 7:00 0.0 l/m2 in 12 Std. -
So, 07.03. 1:00 0.0 l/m2 in 6 Std. -
Sa, 06.03. 19:00 0.0 l/m2 in 12 Std. -
Sa, 06.03. 13:00 0.0 l/m2 in 6 Std. -
Sa, 06.03. 7:00 0.0 l/m2 in 12 Std. -
Ortszeit Niederschlagsmenge Niederschlagsart
Mo, 08.03. 1:00 0.0 l/m2 in 1 Std. -
Mo, 08.03. 0:40 keine Meldung -
Mo, 08.03. 0:30 0.0 l/m2 in 1 Std. -
Mo, 08.03. 0:20 keine Meldung -
Mo, 08.03. 0:10 keine Meldung -
Mo, 08.03. 0:00 0.0 l/m2 in 1 Std. -
So, 07.03. 23:50 keine Meldung -
So, 07.03. 23:30 0.0 l/m2 in 1 Std. -
So, 07.03. 23:00 0.0 l/m2 in 1 Std. -
Ortszeit Stärke Spitze Richtung
km/h Bft. km/h Grad Sektor
Mo, 08.03. 1:00 6 1 13 220° SW
So, 07.03. 19:00 4 1 29 230° SW
So, 07.03. 13:00 22 4 32 280° W
So, 07.03. 7:00 0 0 7 - -
So, 07.03. 1:00 4 1 11 190° S
Sa, 06.03. 19:00 6 1 20 40° NO
Sa, 06.03. 13:00 7 2 18 290° W
Sa, 06.03. 7:00 0 0 7 - -
Ortszeit Stärke Spitze Richtung
km/h Bft. km/h Grad Sektor
Mo, 08.03. 1:00 6 1 13 220° SW
Mo, 08.03. 0:40 6 1 - 240° SW
Mo, 08.03. 0:30 6 1 13 270° W
Mo, 08.03. 0:20 6 1 - 270° W
Mo, 08.03. 0:10 4 1 - 290° W
Mo, 08.03. 0:00 7 2 11 200° S
So, 07.03. 23:50 7 2 - 200° S
So, 07.03. 23:30 7 2 11 220° SW
So, 07.03. 23:00 6 1 9 240° SW
Ortszeit Untergrenze Bedeckung Gattung
total tief tief mittel hoch
Mo, 08.03. 1:00 1500 m 8/8 8/8 - - -
So, 07.03. 19:00 1050 m 7/8 7/8 - - -
So, 07.03. 13:00 930 m 7/8 7/8 - - -
So, 07.03. 7:00 990 m 8/8 8/8 - - -
So, 07.03. 1:00 - 0/8 0/8 - - -
Sa, 06.03. 19:00 1080 m 8/8 8/8 - - -
Sa, 06.03. 13:00 1140 m 5/8 5/8 - - -
Sa, 06.03. 7:00 - 0/8 0/8 - - -
Ortszeit Bedeckungsgrad in Achtel und Wolkenuntergrenze
Mo, 08.03. 1:00 8(1500m)
Mo, 08.03. 0:40 1(780m) 8(1500m)
Mo, 08.03. 0:30 1(780m) 8(1500m)
Mo, 08.03. 0:20 1(780m) 8(1500m)
Mo, 08.03. 0:10 8(1500m)
Mo, 08.03. 0:00 8(1500m)
So, 07.03. 23:50 8(1500m)
So, 07.03. 23:30 1(750m) 8(1500m)
So, 07.03. 23:00 5(750m) 6(960m) 8(1500m)
Ortszeit Luftdruck NN (hPa) Tendenz (hPa in 3 Std.)
Mo, 08.03. 1:00 1022 - 0,6
So, 07.03. 19:00 1022 - 0,7
So, 07.03. 13:00 1025 - 1,3
So, 07.03. 7:00 1027 - 0,8
So, 07.03. 1:00 1030 - 1,1
Sa, 06.03. 19:00 1031 - 0,7
Sa, 06.03. 13:00 1034 - 0,9
Sa, 06.03. 7:00 1035 + 0,5
Ortszeit Luftdruck NN (hPa) Tendenz (hPa in 3 Std.)
Mo, 08.03. 1:00 1022 - 0,6
Mo, 08.03. 0:40 1022 keine Meldung
Mo, 08.03. 0:30 1022 - 0,3
Mo, 08.03. 0:20 1022 keine Meldung
Mo, 08.03. 0:10 1022 keine Meldung
Mo, 08.03. 0:00 1022 - 0,4
So, 07.03. 23:50 1022 keine Meldung
So, 07.03. 23:30 1022 - 0,1
So, 07.03. 23:00 1022 - 0,1
Ortszeit Schneehöhe (cm)
Mo, 08.03. 1:00 0
So, 07.03. 19:00 0
So, 07.03. 13:00 0
So, 07.03. 7:00 0
So, 07.03. 1:00 0
Sa, 06.03. 19:00 0
Sa, 06.03. 13:00 0
Sa, 06.03. 7:00 0
Ortszeit Schneehöhe (cm)
Mo, 08.03. 1:00 0
Mo, 08.03. 0:40 0
Mo, 08.03. 0:30 0
Mo, 08.03. 0:20 0
Mo, 08.03. 0:10 0
Mo, 08.03. 0:00 0
So, 07.03. 23:50 0
So, 07.03. 23:30 0
So, 07.03. 23:00 0
Link zu dieser Seite / Seite empfehlen

Das Wetter in ...